createdAt,value
2022-10-13T00:05:47.608Z,40.8
2022-10-13T00:11:31.957Z,40.5
2022-10-13T00:17:15.104Z,42.6
2022-10-13T00:22:58.514Z,37.3
2022-10-13T00:28:42.088Z,37.9
2022-10-13T00:34:25.393Z,35.2
2022-10-13T00:40:09.333Z,32.3
2022-10-13T00:45:53.574Z,35.4
2022-10-13T00:51:39.226Z,31.5
2022-10-13T00:57:22.470Z,31.5
2022-10-13T01:03:05.917Z,30.4
2022-10-13T01:08:49.090Z,28.9
2022-10-13T01:14:36.634Z,28.3
2022-10-13T01:20:35.033Z,29.6
2022-10-13T01:26:28.907Z,28.4
2022-10-13T01:32:15.473Z,25.2
2022-10-13T01:38:04.013Z,24.9
2022-10-13T01:43:49.567Z,25.3
2022-10-13T01:49:34.976Z,23.9
2022-10-13T01:55:18.537Z,26.8
2022-10-13T02:01:06.783Z,23.6
2022-10-13T02:06:52.925Z,24.9
2022-10-13T02:12:39.423Z,23.6
2022-10-13T02:18:28.639Z,22.1
2022-10-13T02:24:12.588Z,25.8
2022-10-13T02:29:57.158Z,21.1
2022-10-13T02:35:41.463Z,22.3
2022-10-13T02:41:25.912Z,19.4
2022-10-13T02:47:09.486Z,20.1
2022-10-13T02:52:52.666Z,19.6
2022-10-13T02:58:36.228Z,20.6
2022-10-13T03:04:19.714Z,20.3
2022-10-13T03:10:02.824Z,19.8
2022-10-13T03:15:46.038Z,18.7
2022-10-13T03:21:29.552Z,18.6
2022-10-13T03:27:12.720Z,18
2022-10-13T03:32:55.810Z,18.9
2022-10-13T03:38:39.084Z,19.4
2022-10-13T03:44:22.391Z,20.4
2022-10-13T03:50:05.519Z,16.6
2022-10-13T03:55:50.591Z,17
2022-10-13T04:01:34.872Z,17.6
2022-10-13T04:07:18.091Z,15.4
2022-10-13T04:13:01.180Z,17.6
2022-10-13T04:18:47.535Z,15.9
2022-10-13T04:24:30.679Z,15.4
2022-10-13T04:30:16.234Z,18.2
2022-10-13T04:35:59.538Z,14.5
2022-10-13T04:41:42.709Z,17.1
2022-10-13T04:47:25.778Z,15.9
2022-10-13T04:53:09.090Z,15.8
2022-10-13T04:58:52.340Z,15.5
2022-10-13T05:04:35.418Z,14.7
2022-10-13T05:10:18.775Z,15.9
2022-10-13T05:16:01.981Z,22.7
2022-10-13T05:21:46.155Z,20.6
2022-10-13T05:27:30.692Z,15.7
2022-10-13T05:33:13.725Z,18.2
2022-10-13T05:38:57.578Z,18.7
2022-10-13T05:44:41.103Z,15.9
2022-10-13T05:50:24.409Z,14.1
2022-10-13T05:56:09.927Z,14.4
2022-10-13T06:01:53.851Z,14.3
2022-10-13T06:07:37.575Z,14.9
2022-10-13T06:13:20.789Z,16.4
2022-10-13T06:19:05.175Z,14.5
2022-10-13T06:24:48.571Z,14.6
2022-10-13T06:30:32.223Z,16.4
2022-10-13T06:36:15.815Z,15.2
2022-10-13T06:41:59.143Z,14.4
2022-10-13T06:47:42.446Z,13.6
2022-10-13T06:53:25.524Z,14.2
2022-10-13T06:59:09.823Z,14.2
2022-10-13T07:04:53.261Z,15.3
2022-10-13T07:10:36.590Z,15.5
2022-10-13T07:16:19.575Z,14.3
2022-10-13T07:22:02.806Z,14.5
2022-10-13T07:27:46.070Z,10.4
2022-10-13T07:33:29.494Z,11.5
2022-10-13T07:39:14.707Z,18.5
2022-10-13T07:44:57.758Z,17.2
2022-10-13T07:50:40.883Z,17.5
2022-10-13T07:56:25.163Z,16.4
2022-10-13T08:02:08.851Z,16.3
2022-10-13T08:07:59.583Z,17.9
2022-10-13T08:13:42.901Z,18
2022-10-13T08:19:26.718Z,16.7
2022-10-13T08:25:10.567Z,16.5
2022-10-13T08:30:54.076Z,17.3
2022-10-13T08:36:38.963Z,13.4
2022-10-13T08:42:24.534Z,16.8
2022-10-13T08:48:09.815Z,16.1
2022-10-13T08:53:54.023Z,12.9
2022-10-13T08:59:38.288Z,16.8
2022-10-13T09:05:27.675Z,16.9
2022-10-13T09:11:11.117Z,17.3
2022-10-13T09:16:55.802Z,19.1
2022-10-13T09:22:39.751Z,15.2
2022-10-13T09:28:25.709Z,13.8
2022-10-13T09:34:14.225Z,16.2
2022-10-13T09:40:11.950Z,13
2022-10-13T09:45:55.789Z,11.9
2022-10-13T09:51:41.267Z,11.6
2022-10-13T09:57:31.079Z,12
2022-10-13T10:03:18.143Z,12.8
2022-10-13T10:09:07.584Z,9.2
2022-10-13T10:14:50.854Z,10.8
2022-10-13T10:20:50.399Z,11
2022-10-13T10:26:38.463Z,8.3
2022-10-13T10:32:28.367Z,9.9
2022-10-13T10:38:18.422Z,10.1
2022-10-13T10:44:03.077Z,7.9
2022-10-13T10:49:46.575Z,9.5
2022-10-13T10:55:33.830Z,9.5
2022-10-13T11:01:25.436Z,10
2022-10-13T11:07:12.427Z,9.9
2022-10-13T11:13:06.902Z,10.5
2022-10-13T11:19:06.221Z,9.2
2022-10-13T11:24:52.719Z,9.1
2022-10-13T11:30:46.969Z,8
2022-10-13T11:36:47.119Z,9.2
2022-10-13T11:42:40.080Z,8
2022-10-13T11:48:43.818Z,9.1
2022-10-13T11:54:33.095Z,6.9
2022-10-13T12:00:21.192Z,10.1
2022-10-13T12:06:05.875Z,8.9
2022-10-13T12:11:49.499Z,8.8
2022-10-13T12:17:35.243Z,8.6
2022-10-13T12:23:20.954Z,6.9
2022-10-13T12:29:04.716Z,8
2022-10-13T12:34:48.029Z,7.1
2022-10-13T12:40:31.726Z,8.2
2022-10-13T12:46:14.747Z,9.3
2022-10-13T12:52:00.077Z,5.8
2022-10-13T12:57:43.320Z,5.4
2022-10-13T13:03:29.979Z,5.6
2022-10-13T13:09:24.376Z,5.5
2022-10-13T13:15:18.485Z,4.6
2022-10-13T13:21:01.607Z,4.8
2022-10-13T13:26:48.048Z,5.7
2022-10-13T13:32:31.277Z,5.4
2022-10-13T13:38:15.501Z,5.2
2022-10-13T13:43:58.835Z,4.3
2022-10-13T13:49:42.151Z,5.4
2022-10-13T13:55:25.487Z,4
2022-10-13T14:01:08.857Z,4
2022-10-13T14:06:53.334Z,4.5
2022-10-13T14:12:36.730Z,3.6
2022-10-13T14:18:20.100Z,3.9
2022-10-13T14:24:03.423Z,3.6
2022-10-13T14:29:46.750Z,3.8
2022-10-13T14:35:29.890Z,2.2
2022-10-13T14:41:13.187Z,3.1
2022-10-13T14:46:56.443Z,3.6
2022-10-13T14:52:39.570Z,3.3
2022-10-13T14:58:22.880Z,3.7
2022-10-13T15:04:06.022Z,3.4
2022-10-13T15:10:05.775Z,1.9
2022-10-13T15:15:52.468Z,4.1
2022-10-13T15:21:35.823Z,2.9
2022-10-13T15:27:19.471Z,3.9
2022-10-13T15:33:03.010Z,3.4
2022-10-13T15:38:46.564Z,3.2
2022-10-13T15:45:04.879Z,3.8
2022-10-13T15:50:28.420Z,3.4
2022-10-13T15:56:11.732Z,3.1
2022-10-13T16:01:55.182Z,3.1
2022-10-13T16:07:38.615Z,3.2
2022-10-13T16:13:21.895Z,5.2
2022-10-13T16:19:05.171Z,3.3
2022-10-13T16:24:49.543Z,5.8
2022-10-13T16:30:33.153Z,4.5
2022-10-13T16:36:17.514Z,3.5
2022-10-13T16:42:00.906Z,4.2
2022-10-13T16:47:44.157Z,6.9
2022-10-13T16:53:27.357Z,4.3
2022-10-13T16:59:10.593Z,4
2022-10-13T17:04:53.704Z,5.8
2022-10-13T17:10:37.188Z,3.7
2022-10-13T17:16:20.796Z,4.5
2022-10-13T17:22:03.949Z,4.2
2022-10-13T17:27:47.974Z,5.5
2022-10-13T17:33:31.882Z,4.3
2022-10-13T17:39:15.350Z,5
2022-10-13T17:44:59.106Z,7.7
2022-10-13T17:50:42.354Z,6.4
2022-10-13T17:56:26.738Z,4.2
2022-10-13T18:02:11.258Z,5
2022-10-13T18:07:58.810Z,5
2022-10-13T18:13:41.932Z,4.7
2022-10-13T18:19:25.542Z,5.7
2022-10-13T18:25:09.502Z,5.5
2022-10-13T18:30:52.814Z,4.2
2022-10-13T18:36:37.043Z,6.3
2022-10-13T18:42:20.283Z,5.3
2022-10-13T18:48:03.406Z,4.7
2022-10-13T18:53:47.026Z,4.7
2022-10-13T18:59:30.194Z,4.8
2022-10-13T19:05:14.029Z,3.6
2022-10-13T19:10:57.378Z,4.6
2022-10-13T19:16:42.541Z,3.8
2022-10-13T19:22:25.746Z,3.9
2022-10-13T19:28:09.006Z,4.4
2022-10-13T19:33:53.067Z,4.7
2022-10-13T19:39:37.068Z,5.4
2022-10-13T19:45:21.433Z,4.2
2022-10-13T19:51:06.810Z,4
2022-10-13T19:56:51.597Z,4.3
2022-10-13T20:02:35.346Z,4.1
2022-10-13T20:08:18.786Z,4.6
2022-10-13T20:14:03.412Z,4.8
2022-10-13T20:19:46.970Z,3.6
2022-10-13T20:25:31.418Z,3.6
2022-10-13T20:31:15.758Z,4.2
2022-10-13T20:37:00.046Z,3.8
2022-10-13T20:42:43.612Z,4.9
2022-10-13T20:48:51.426Z,4.8
2022-10-13T20:54:22.422Z,6.7
2022-10-13T21:00:06.615Z,2.8
2022-10-13T21:05:50.335Z,3.3
2022-10-13T21:11:33.488Z,2.7
2022-10-13T21:17:17.180Z,2.6
2022-10-13T21:23:01.217Z,4
2022-10-13T21:28:45.312Z,3.9
2022-10-13T21:34:29.048Z,4.3
2022-10-13T21:40:12.782Z,2.9
2022-10-13T21:45:56.142Z,3.8
2022-10-13T21:51:40.554Z,3.3
2022-10-13T21:57:24.909Z,2.3
2022-10-13T22:03:08.209Z,2.7
2022-10-13T22:08:52.324Z,2.3
2022-10-13T22:14:35.463Z,2.4
2022-10-13T22:20:18.809Z,2.4
2022-10-13T22:26:02.210Z,2.2
2022-10-13T22:31:45.546Z,3
2022-10-13T22:37:29.051Z,1.7
2022-10-13T22:43:12.302Z,2.5
2022-10-13T22:48:55.747Z,2.9
2022-10-13T22:54:38.978Z,1.8
2022-10-13T23:00:22.702Z,1.9
2022-10-13T23:06:06.018Z,3.1
2022-10-13T23:11:49.178Z,2.8
2022-10-13T23:17:32.398Z,1.8
2022-10-13T23:23:16.486Z,2.6
2022-10-13T23:29:00.477Z,2.7
2022-10-13T23:34:43.920Z,2.3
2022-10-13T23:40:27.326Z,2.2
2022-10-13T23:46:10.645Z,4.2
2022-10-13T23:51:53.808Z,3
2022-10-13T23:57:37.286Z,2.8
